Boston, PA

7:18 AM EST on February 01, 2015 (GMT -0500)
Mckeesport | Change Station
CLOSE
Current Station
Personal Weather Station
Location: McKeesport, PA
Elevation: 1148 ft
Nearby Weather Stations
Active Advisory: Winter Weather Advisory

Elev 1148 ft 40.32 °N, 79.81 °W | Updated 4 minutes ago

Snow
Snow
26.9 °F
Feels Like 27 °F
N
0.0
Wind Variable Wind from West
Gusts 0.0 mph

Today
High -- | Low -- °F
--% Chance of Precip.
Yesterday
High -- | Low -- °F
Precip. -- in
7:28 AM 5:37 PM
Waxing Gibbous, 94% visible
Pressure 30.24 in
Visibility 1.2 miles
Clouds Mostly Cloudy 2000 ft
Overcast 3200 ft
Windchill 27 °F
Dew Point 23 °F
Humidity 85%
Rainfall 0.00 in
Snow Depth Not available.
UV 0 out of 12
Pollen .10 out of 12
Air Quality Not available.
Flu Activity Not available.
METAR KAGC 011153Z 17005KT 1 1/4SM -SN BR BKN020 OVC032 M04/M06 A3017 RMK AO2 SLP238 P0000 60000 T10391061 11028 21039 51002

More Conditions Fewer Conditions

Pressure 30.24 in
Visibility 1.2 miles
Clouds Mostly Cloudy 2000 ft
Overcast 3200 ft
Windchill 27 °F
Dew Point 23 °F
Humidity 85%
Rainfall 0.00 in
Snow Depth Not available.
UV 0 out of 12
Pollen .10 out of 12
Air Quality Not available.
Flu Activity Not available.
METAR KAGC 011153Z 17005KT 1 1/4SM -SN BR BKN020 OVC032 M04/M06 A3017 RMK AO2 SLP238 P0000 60000 T10391061 11028 21039 51002

More Conditions Fewer Conditions

10-Day Weather Forecast

Almanac

Astronomy

Feb. 01, 2015 Rise Set
Actual Time
Civil Twilight
Nautical Twilight
Astronomical Twilight
Moon
Length of Visible Light
Length of Day
Tomorrow will be .
, % of the Moon is Illuminated

Today's Extremes

State Highs State Lows

Community

WunderPhotos

Upload Photos

1,792,349 photos uploaded!

WunderBlogs® & News

Nearby

Air Quality

  Air Quality AQ Index Pollutant
Not available.

Snow Depth

Station Depth Elevation

Earthquake Activity

City Distance Mag. Time & Date
Minimum magnitude displayed is 2.5.

Coastal Water Temperatures

Place Temperature

Nearby Weather Stations